Time;durP1;ratioP1;P1;durP2;ratioP2;P2;SDS_P1;SDS_P2;PMS_P1;PMS_P2;Temp;Humidity;BMP_temperature;BMP_pressure;BME280_temperature;BME280_humidity;BME280_pressure;Samples;Min_cycle;Max_cycle;Signal;HPM_P1;HPM_P2
2022/08/26 00:00:14;;;;;;;4.00;3.00;;;20.00;99.90;;;;;;5027083;28;20025;-76
2022/08/26 00:02:40;;;;;;;3.75;3.00;;;19.90;99.90;;;;;;5024531;28;20108;-76
2022/08/26 00:05:05;;;;;;;4.90;2.72;;;19.90;99.90;;;;;;5024163;28;21007;-76
2022/08/26 00:07:31;;;;;;;3.03;2.70;;;19.90;99.90;;;;;;5026405;28;20041;-77
2022/08/26 00:09:57;;;;;;;3.85;2.70;;;19.80;99.90;;;;;;5022838;28;20041;-77
2022/08/26 00:12:23;;;;;;;4.18;2.92;;;19.80;99.90;;;;;;5026915;28;20392;-77
2022/08/26 00:14:48;;;;;;;5.60;3.97;;;19.90;99.90;;;;;;5024541;28;20029;-77
2022/08/26 00:17:14;;;;;;;4.32;2.72;;;19.80;99.90;;;;;;5025694;28;20085;-76
2022/08/26 00:19:39;;;;;;;4.10;2.72;;;19.90;99.90;;;;;;5023434;28;20029;-76
2022/08/26 00:22:05;;;;;;;4.28;2.85;;;19.90;99.90;;;;;;5027078;28;20032;-76
2022/08/26 00:24:31;;;;;;;5.10;3.15;;;19.90;99.90;;;;;;5025682;28;20550;-76
2022/08/26 00:26:56;;;;;;;5.05;3.40;;;19.90;99.90;;;;;;5024968;28;20064;-76
2022/08/26 00:29:22;;;;;;;7.97;3.08;;;19.80;99.90;;;;;;5027082;28;20115;-77
2022/08/26 00:31:48;;;;;;;3.55;2.92;;;19.80;99.90;;;;;;5025468;28;20036;-77
2022/08/26 00:34:15;;;;;;;4.32;3.20;;;19.80;99.90;;;;;;5024162;28;20032;-76
2022/08/26 00:36:41;;;;;;;3.35;2.70;;;19.70;99.90;;;;;;5026969;28;20026;-77
2022/08/26 00:39:07;;;;;;;5.20;2.88;;;19.70;99.90;;;;;;5026327;28;20108;-76
2022/08/26 00:41:34;;;;;;;8.30;3.60;;;19.80;99.90;;;;;;5027824;28;20468;-76
2022/08/26 00:44:00;;;;;;;4.75;3.17;;;19.80;99.90;;;;;;5027293;28;20037;-76
2022/08/26 00:46:30;;;;;;;5.80;3.33;;;19.70;99.90;;;;;;5025741;28;20071;-76
2022/08/26 00:49:04;;;;;;;5.00;3.20;;;19.80;99.90;;;;;;5024683;28;20048;-76
2022/08/26 00:51:30;;;;;;;5.65;3.42;;;19.90;99.90;;;;;;5026137;28;20040;-77
2022/08/26 00:54:04;;;;;;;6.75;3.40;;;19.80;99.90;;;;;;5023709;28;20056;-76
2022/08/26 00:56:37;;;;;;;5.45;2.88;;;19.80;99.90;;;;;;5027435;28;20116;-76
2022/08/26 00:59:07;;;;;;;5.28;3.33;;;19.70;99.90;;;;;;5031093;28;20017;-76
2022/08/26 01:01:34;;;;;;;4.78;3.08;;;19.80;99.90;;;;;;5030491;28;20034;-77
2022/08/26 01:04:00;;;;;;;4.82;2.92;;;19.70;99.90;;;;;;5031630;28;20443;-77
2022/08/26 01:06:27;;;;;;;5.47;3.50;;;19.60;99.90;;;;;;5029485;28;20419;-77
2022/08/26 01:08:52;;;;;;;5.05;3.47;;;19.60;99.90;;;;;;5029460;28;20026;-76
2022/08/26 01:11:18;;;;;;;6.70;3.25;;;19.60;99.90;;;;;;5030581;28;20068;-76
2022/08/26 01:13:45;;;;;;;9.38;3.60;;;19.70;99.90;;;;;;5029819;28;20021;-76
2022/08/26 01:16:13;;;;;;;6.30;2.75;;;19.60;99.90;;;;;;5031123;28;20026;-76
2022/08/26 01:18:42;;;;;;;4.47;2.90;;;19.60;99.90;;;;;;5030108;28;20029;-76
2022/08/26 01:21:28;;;;;;;6.57;4.00;;;19.60;99.90;;;;;;5030591;28;20102;-77
2022/08/26 01:23:55;;;;;;;4.47;2.70;;;19.60;99.90;;;;;;5027955;28;20032;-77
2022/08/26 01:26:25;;;;;;;4.43;3.05;;;19.70;99.90;;;;;;5030568;28;20103;-76
2022/08/26 01:28:55;;;;;;;6.28;3.67;;;19.70;99.90;;;;;;5028240;28;20750;-76
2022/08/26 01:31:25;;;;;;;6.90;2.95;;;19.70;99.90;;;;;;5030731;28;20488;-77
2022/08/26 01:34:12;;;;;;;4.35;3.00;;;19.70;99.90;;;;;;5030621;28;20089;-76
2022/08/26 01:36:39;;;;;;;5.30;2.78;;;19.90;99.90;;;;;;5022632;28;20029;-76
2022/08/26 01:39:05;;;;;;;3.92;2.90;;;20.00;99.90;;;;;;5029652;28;20025;-77
2022/08/26 01:41:32;;;;;;;4.38;2.95;;;19.90;99.90;;;;;;5029055;28;20037;-76
2022/08/26 01:43:59;;;;;;;3.95;2.92;;;20.00;99.90;;;;;;5028288;28;20029;-77
2022/08/26 01:46:27;;;;;;;4.38;3.28;;;20.00;99.90;;;;;;5031215;28;20203;-76
2022/08/26 01:48:54;;;;;;;5.72;3.22;;;20.00;99.90;;;;;;5028599;28;20500;-77
2022/08/26 01:51:22;;;;;;;6.97;3.38;;;20.00;99.90;;;;;;5029283;28;20041;-76
2022/08/26 01:53:47;;;;;;;4.18;2.65;;;19.80;99.90;;;;;;5029682;28;20503;-76
2022/08/26 01:56:14;;;;;;;4.60;3.08;;;19.90;99.90;;;;;;5029900;28;20063;-77
2022/08/26 01:58:50;;;;;;;7.93;4.40;;;19.90;99.90;;;;;;5028438;28;20073;-77
2022/08/26 02:01:16;;;;;;;4.25;2.95;;;19.90;99.90;;;;;;5027620;28;20918;-77
2022/08/26 02:04:06;;;;;;;4.70;3.05;;;19.90;99.90;;;;;;5029448;28;20045;-77
2022/08/26 02:06:31;;;;;;;4.85;3.60;;;19.90;99.90;;;;;;5023691;28;20183;-76
2022/08/26 02:09:00;;;;;;;4.80;3.20;;;20.00;99.90;;;;;;5029907;28;20508;-76
2022/08/26 02:11:26;;;;;;;5.30;3.28;;;19.90;99.90;;;;;;5029739;28;20044;-76
2022/08/26 02:13:58;;;;;;;4.68;3.20;;;19.80;99.90;;;;;;5032297;28;20033;-76
2022/08/26 02:16:27;;;;;;;6.15;3.35;;;19.80;99.90;;;;;;5030169;28;20029;-76
2022/08/26 02:18:54;;;;;;;3.53;2.85;;;19.70;99.90;;;;;;5029149;28;20439;-76
2022/08/26 02:21:20;;;;;;;4.47;3.50;;;19.80;99.90;;;;;;5028361;28;20032;-76
2022/08/26 02:23:46;;;;;;;4.05;2.83;;;19.60;99.90;;;;;;5029973;28;20021;-76
2022/08/26 02:26:15;;;;;;;4.05;3.10;;;19.50;99.90;;;;;;5028360;28;20037;-76
2022/08/26 02:28:51;;;;;;;4.30;2.88;;;19.50;99.90;;;;;;5032720;28;20029;-77
2022/08/26 02:31:16;;;;;;;4.00;2.90;;;19.50;99.90;;;;;;5024289;28;20053;-77
2022/08/26 02:33:42;;;;;;;7.57;2.97;;;19.50;99.90;;;;;;5027780;28;20033;-76
2022/08/26 02:36:08;;;;;;;3.92;3.30;;;19.50;99.90;;;;;;5023948;28;20025;-76
2022/08/26 02:38:34;;;;;;;3.53;2.92;;;19.40;99.90;;;;;;5029329;28;20025;-76
2022/08/26 02:40:59;;;;;;;8.50;3.70;;;19.50;99.90;;;;;;5026322;28;20068;-76
2022/08/26 02:43:25;;;;;;;4.53;2.83;;;19.50;99.90;;;;;;5028763;28;20033;-76
2022/08/26 02:45:51;;;;;;;4.40;2.95;;;19.50;99.90;;;;;;5024890;28;20559;-77
2022/08/26 02:48:18;;;;;;;5.60;3.38;;;19.50;99.90;;;;;;5026725;28;20029;-76
2022/08/26 02:50:44;;;;;;;6.88;3.92;;;19.40;99.90;;;;;;5027920;28;20037;-77
2022/08/26 02:53:11;;;;;;;8.18;3.30;;;19.50;99.90;;;;;;5027990;28;20033;-76
2022/08/26 02:55:37;;;;;;;7.78;3.03;;;19.40;99.90;;;;;;5025182;28;20033;-76
2022/08/26 02:58:03;;;;;;;5.40;3.58;;;19.20;99.90;;;;;;5027034;28;20376;-77
2022/08/26 03:00:30;;;;;;;3.42;2.65;;;19.10;99.90;;;;;;5028226;28;20091;-76
2022/08/26 03:02:57;;;;;;;4.25;3.08;;;19.10;99.90;;;;;;5027339;28;20029;-76
2022/08/26 03:05:23;;;;;;;5.20;3.58;;;19.10;99.90;;;;;;5025198;28;20508;-77
2022/08/26 03:07:49;;;;;;;7.18;2.83;;;19.20;99.90;;;;;;5025625;28;20034;-77
2022/08/26 03:10:15;;;;;;;5.18;3.00;;;19.10;99.90;;;;;;5027497;28;20089;-76
2022/08/26 03:12:41;;;;;;;5.30;3.28;;;19.20;99.90;;;;;;5028214;28;20131;-77
2022/08/26 03:15:07;;;;;;;5.82;3.50;;;19.10;99.90;;;;;;5015656;28;20046;-77
2022/08/26 03:17:33;;;;;;;4.25;2.75;;;19.20;99.90;;;;;;5025919;28;20029;-77
2022/08/26 03:19:58;;;;;;;3.22;2.92;;;19.20;99.90;;;;;;5025617;28;20075;-77
2022/08/26 03:22:25;;;;;;;3.50;3.00;;;19.30;99.90;;;;;;5026098;28;20030;-77
2022/08/26 03:24:50;;;;;;;3.15;2.67;;;19.30;99.90;;;;;;5026052;28;20032;-76
2022/08/26 03:27:16;;;;;;;5.97;3.20;;;19.30;99.90;;;;;;5027714;28;20029;-76
2022/08/26 03:32:26;;;;;;;3.95;2.70;;;19.10;99.90;;;;;;5027379;28;20868;-77
2022/08/26 03:34:51;;;;;;;5.00;3.15;;;19.20;99.90;;;;;;5025627;28;20021;-77
2022/08/26 03:37:18;;;;;;;3.70;3.05;;;19.20;99.90;;;;;;5024823;28;20033;-76
2022/08/26 03:39:43;;;;;;;4.55;3.17;;;19.20;99.90;;;;;;5025991;28;20034;-77
2022/08/26 03:42:09;;;;;;;4.30;3.40;;;19.10;99.90;;;;;;5024608;28;20029;-76
2022/08/26 03:44:35;;;;;;;8.65;3.45;;;19.10;99.90;;;;;;5027128;28;20075;-77
2022/08/26 03:47:01;;;;;;;5.80;3.33;;;19.10;99.90;;;;;;5026998;28;20029;-77
2022/08/26 03:49:26;;;;;;;5.53;3.28;;;19.30;99.90;;;;;;5032685;28;20052;-76
2022/08/26 03:51:52;;;;;;;3.75;2.50;;;19.20;99.90;;;;;;5025311;28;20026;-77
2022/08/26 03:54:17;;;;;;;4.32;2.88;;;19.30;99.90;;;;;;5026219;28;20538;-77
2022/08/26 03:56:43;;;;;;;4.30;3.10;;;19.30;99.90;;;;;;5022979;28;20022;-76
2022/08/26 03:59:08;;;;;;;6.35;3.20;;;19.30;99.90;;;;;;5024205;28;20706;-76
2022/08/26 04:01:34;;;;;;;4.35;2.67;;;19.20;99.90;;;;;;5028083;28;20022;-77
2022/08/26 04:04:00;;;;;;;3.28;2.72;;;19.20;99.90;;;;;;5027207;28;20017;-77
2022/08/26 04:06:35;;;;;;;5.43;3.47;;;19.10;99.90;;;;;;5025760;28;20480;-77
2022/08/26 04:09:05;;;;;;;4.50;3.17;;;19.20;99.90;;;;;;5024558;28;20025;-77
2022/08/26 04:11:32;;;;;;;8.80;3.38;;;19.20;99.90;;;;;;5025610;28;20112;-77
2022/08/26 04:13:59;;;;;;;5.05;3.38;;;19.10;99.90;;;;;;5025139;28;20037;-76
2022/08/26 04:16:28;;;;;;;4.90;3.22;;;19.10;99.90;;;;;;5026893;28;20282;-76
2022/08/26 04:18:54;;;;;;;5.15;3.63;;;19.10;99.90;;;;;;5025127;28;20014;-76
2022/08/26 04:21:19;;;;;;;5.03;3.05;;;19.00;99.90;;;;;;5024632;28;20033;-77
2022/08/26 04:23:45;;;;;;;4.28;2.95;;;19.10;99.90;;;;;;5027091;28;20033;-76
2022/08/26 04:26:11;;;;;;;5.13;3.22;;;19.20;99.90;;;;;;5025731;28;20514;-76
2022/08/26 04:28:36;;;;;;;5.18;3.25;;;19.20;99.90;;;;;;5021373;28;20017;-77
2022/08/26 04:31:02;;;;;;;4.03;3.25;;;19.10;99.90;;;;;;5028927;28;20128;-77
2022/08/26 04:33:28;;;;;;;5.60;3.20;;;19.00;99.90;;;;;;5028374;28;20033;-76
2022/08/26 04:36:01;;;;;;;4.30;3.10;;;19.10;99.90;;;;;;5026313;28;20036;-76
2022/08/26 04:38:26;;;;;;;5.90;3.70;;;19.10;99.90;;;;;;5030840;28;20029;-76
2022/08/26 04:40:52;;;;;;;6.28;3.47;;;19.10;99.90;;;;;;5028272;28;20026;-77
2022/08/26 04:43:17;;;;;;;5.53;3.70;;;19.10;99.90;;;;;;5028931;28;20044;-77
2022/08/26 04:45:43;;;;;;;7.90;3.28;;;19.20;99.90;;;;;;5028568;28;20369;-76
2022/08/26 04:48:08;;;;;;;6.85;3.22;;;19.20;99.90;;;;;;5027414;28;20025;-77
2022/08/26 04:50:34;;;;;;;7.25;3.08;;;19.20;99.90;;;;;;5029613;28;20025;-76
2022/08/26 04:52:59;;;;;;;6.03;3.38;;;19.20;99.90;;;;;;5028380;28;20109;-76
2022/08/26 04:55:25;;;;;;;5.50;3.20;;;19.20;99.90;;;;;;5030783;28;20129;-77
2022/08/26 04:57:52;;;;;;;5.68;3.40;;;19.40;99.90;;;;;;5025498;28;20037;-77
2022/08/26 05:00:17;;;;;;;3.60;2.80;;;19.40;99.90;;;;;;5026490;28;20112;-77
2022/08/26 05:02:43;;;;;;;4.72;3.40;;;19.40;99.90;;;;;;5029476;28;20592;-76
2022/08/26 05:05:09;;;;;;;3.88;3.03;;;19.50;99.90;;;;;;5029107;28;20045;-77
2022/08/26 05:07:35;;;;;;;4.68;3.30;;;19.60;99.90;;;;;;5027499;28;20503;-75
2022/08/26 05:10:01;;;;;;;3.97;2.90;;;19.70;99.90;;;;;;5028064;28;20060;-75
2022/08/26 05:12:28;;;;;;;6.57;3.08;;;19.80;99.90;;;;;;5026437;28;20033;-75
2022/08/26 05:14:54;;;;;;;5.03;3.53;;;19.70;99.90;;;;;;5028618;28;20032;-75
2022/08/26 05:17:20;;;;;;;5.15;3.35;;;19.90;99.90;;;;;;5029017;28;20033;-75
2022/08/26 05:19:46;;;;;;;8.90;4.93;;;19.90;99.90;;;;;;5031309;28;20071;-75
2022/08/26 05:22:12;;;;;;;4.38;2.92;;;20.00;99.90;;;;;;5027174;28;20052;-75
2022/08/26 05:24:37;;;;;;;7.25;4.35;;;20.10;99.90;;;;;;5025462;28;20071;-76
2022/08/26 05:27:03;;;;;;;4.20;3.20;;;20.20;99.90;;;;;;5028634;28;20057;-75
2022/08/26 05:29:28;;;;;;;4.47;3.03;;;20.20;99.90;;;;;;5029177;28;20113;-75
2022/08/26 05:31:54;;;;;;;4.45;3.33;;;20.30;99.90;;;;;;5024949;28;20131;-75
2022/08/26 05:34:19;;;;;;;8.98;4.03;;;20.40;99.90;;;;;;5027435;28;20251;-76
2022/08/26 05:36:45;;;;;;;5.28;3.70;;;20.50;99.90;;;;;;5030013;28;20029;-76
2022/08/26 05:39:11;;;;;;;5.63;3.47;;;20.50;99.90;;;;;;5025685;28;20060;-76
2022/08/26 05:41:39;;;;;;;6.05;3.90;;;20.60;99.90;;;;;;5026646;28;20025;-81
2022/08/26 05:44:08;;;;;;;6.47;4.05;;;20.60;99.90;;;;;;5023216;28;20488;-75
2022/08/26 05:46:35;;;;;;;5.13;3.38;;;20.70;99.90;;;;;;5025538;28;20034;-76
2022/08/26 05:49:01;;;;;;;6.38;4.07;;;20.80;99.90;;;;;;5021281;28;20025;-77
2022/08/26 05:51:27;;;;;;;6.47;3.72;;;20.70;99.90;;;;;;5022175;28;20033;-78
2022/08/26 05:53:53;;;;;;;5.95;3.88;;;20.70;99.90;;;;;;5026116;28;20025;-78
2022/08/26 05:56:20;;;;;;;4.60;3.58;;;20.70;99.90;;;;;;5027433;28;20029;-78
2022/08/26 05:58:45;;;;;;;5.88;4.20;;;20.80;99.90;;;;;;5029585;28;20033;-78
2022/08/26 06:01:17;;;;;;;7.03;4.32;;;20.80;99.90;;;;;;5028111;28;20647;-78
2022/08/26 06:03:46;;;;;;;7.55;4.75;;;20.90;99.90;;;;;;5029963;28;20075;-78
2022/08/26 06:06:14;;;;;;;5.93;3.90;;;21.00;99.90;;;;;;5030189;28;20492;-78
2022/08/26 06:08:41;;;;;;;8.73;4.15;;;21.10;99.90;;;;;;5025507;28;20571;-78
2022/08/26 06:11:09;;;;;;;11.52;4.50;;;21.20;99.90;;;;;;5028041;28;20041;-78
2022/08/26 06:13:36;;;;;;;6.70;4.15;;;21.20;99.90;;;;;;5029593;28;20427;-78
2022/08/26 06:16:07;;;;;;;6.88;4.10;;;21.30;99.90;;;;;;5030194;28;20060;-78
2022/08/26 06:18:36;;;;;;;8.75;4.18;;;21.40;99.90;;;;;;5029072;28;20618;-78
2022/08/26 06:21:21;;;;;;;5.78;3.72;;;21.40;99.90;;;;;;5026919;28;20658;-80
2022/08/26 06:26:34;;;;;;;12.30;3.70;;;21.70;99.90;;;;;;5027642;28;20036;-78
2022/08/26 06:29:01;;;;;;;5.63;3.85;;;21.80;99.90;;;;;;5026022;28;20030;-77
2022/08/26 06:31:27;;;;;;;9.27;4.43;;;22.00;99.90;;;;;;5029166;28;20052;-78
2022/08/26 06:33:53;;;;;;;6.45;4.20;;;22.10;99.90;;;;;;5028220;28;20025;-78
2022/08/26 06:36:21;;;;;;;8.75;3.70;;;22.10;99.90;;;;;;5029330;28;20124;-78
2022/08/26 06:38:48;;;;;;;3.97;3.22;;;22.20;99.90;;;;;;5027156;28;20025;-79
2022/08/26 06:41:14;;;;;;;7.57;3.70;;;22.20;99.90;;;;;;5022926;28;20029;-79
2022/08/26 06:43:39;;;;;;;9.73;3.67;;;22.20;99.90;;;;;;5018163;28;20086;-82
2022/08/26 06:46:09;;;;;;;7.25;3.85;;;22.30;99.90;;;;;;5028000;28;20044;-82
2022/08/26 06:48:35;;;;;;;7.32;4.30;;;22.30;99.90;;;;;;5027888;28;20171;-82
2022/08/26 06:51:13;;;;;;;8.70;4.57;;;22.30;99.90;;;;;;5028905;28;20100;-81
2022/08/26 06:53:40;;;;;;;12.82;4.28;;;22.40;99.90;;;;;;5021433;28;20439;-81
2022/08/26 06:56:08;;;;;;;5.65;3.78;;;22.50;99.90;;;;;;5021826;28;20052;-79
2022/08/26 06:58:36;;;;;;;6.60;3.80;;;22.60;99.90;;;;;;5032898;28;20070;-79
2022/08/26 07:01:02;;;;;;;8.50;4.55;;;22.60;99.90;;;;;;5023416;28;20780;-90
2022/08/26 07:03:28;;;;;;;9.13;3.95;;;22.60;99.90;;;;;;5015800;28;20030;-76
2022/08/26 07:06:00;;;;;;;5.93;3.58;;;22.70;99.90;;;;;;5025403;28;20040;-77
2022/08/26 07:08:26;;;;;;;9.45;4.03;;;22.80;99.90;;;;;;5026126;28;20040;-80
2022/08/26 07:10:52;;;;;;;10.40;4.05;;;22.80;99.90;;;;;;5020513;28;20029;-80
2022/08/26 07:13:17;;;;;;;6.80;3.80;;;22.90;99.90;;;;;;5019181;28;20672;-86
2022/08/26 07:15:43;;;;;;;4.18;3.28;;;22.90;99.90;;;;;;5025288;28;20511;-83
2022/08/26 07:18:08;;;;;;;5.80;3.80;;;23.00;99.90;;;;;;5023514;28;20025;-82
2022/08/26 07:20:47;;;;;;;5.05;3.50;;;23.00;99.90;;;;;;5023494;28;20028;-82
2022/08/26 07:23:12;;;;;;;6.30;3.63;;;23.10;99.90;;;;;;5026219;28;20033;-83
2022/08/26 07:25:42;;;;;;;7.43;4.07;;;23.20;99.90;;;;;;5026249;28;20022;-82
2022/08/26 07:28:08;;;;;;;7.20;3.78;;;23.20;99.90;;;;;;5024965;28;20031;-82
2022/08/26 07:30:40;;;;;;;8.10;4.13;;;23.30;99.90;;;;;;5028393;28;20049;-82
2022/08/26 07:33:06;;;;;;;6.00;3.60;;;23.40;99.90;;;;;;5028110;28;20029;-82
2022/08/26 07:35:31;;;;;;;5.25;3.72;;;23.40;99.90;;;;;;5023430;28;20037;-82
2022/08/26 07:37:57;;;;;;;6.68;4.43;;;23.40;99.90;;;;;;5016628;28;20029;-82
2022/08/26 07:40:23;;;;;;;6.32;4.10;;;23.60;99.90;;;;;;5023087;28;20022;-82
2022/08/26 07:42:49;;;;;;;5.80;3.75;;;23.60;99.90;;;;;;5028706;28;20045;-82
2022/08/26 07:45:14;;;;;;;6.35;4.28;;;23.60;99.90;;;;;;5025593;28;20105;-82
2022/08/26 07:47:49;;;;;;;13.18;4.00;;;23.60;99.90;;;;;;5024772;28;20033;-82
2022/08/26 07:50:15;;;;;;;6.82;3.70;;;23.80;99.90;;;;;;5024447;28;20972;-81
2022/08/26 07:52:41;;;;;;;4.45;3.45;;;23.80;99.90;;;;;;5022289;28;20125;-78
2022/08/26 07:55:08;;;;;;;3.38;2.95;;;23.80;99.90;;;;;;5024554;28;20033;-80
2022/08/26 07:57:34;;;;;;;6.00;3.88;;;24.00;99.90;;;;;;5024690;28;20044;-76
2022/08/26 08:00:00;;;;;;;11.13;4.07;;;24.00;99.90;;;;;;5022400;28;20021;-76
2022/08/26 08:02:27;;;;;;;6.72;3.55;;;24.10;99.90;;;;;;5022843;28;20034;-76
2022/08/26 08:04:54;;;;;;;8.77;4.65;;;24.00;99.90;;;;;;5026754;28;20048;-77
2022/08/26 08:07:20;;;;;;;8.05;3.80;;;24.10;99.90;;;;;;5024805;28;20018;-76
2022/08/26 08:09:48;;;;;;;4.82;3.80;;;24.30;99.90;;;;;;5027579;28;20076;-76
2022/08/26 08:12:14;;;;;;;5.50;3.30;;;24.30;99.90;;;;;;5025859;28;20032;-77
2022/08/26 08:14:43;;;;;;;10.30;4.03;;;24.30;99.90;;;;;;5027644;28;20083;-80
2022/08/26 08:17:09;;;;;;;5.35;4.00;;;24.30;99.90;;;;;;5024491;28;20033;-82
2022/08/26 08:19:35;;;;;;;6.07;3.20;;;24.60;99.90;;;;;;5025733;28;20042;-80
2022/08/26 08:22:03;;;;;;;4.72;3.30;;;24.60;99.90;;;;;;5022788;28;20112;-80
2022/08/26 08:24:34;;;;;;;4.53;2.97;;;24.80;99.90;;;;;;5024827;28;20025;-80
2022/08/26 08:27:07;;;;;;;6.72;3.63;;;24.80;99.90;;;;;;5024018;28;20025;-79
2022/08/26 08:29:32;;;;;;;7.15;2.83;;;25.10;99.90;;;;;;5023774;28;20124;-79
2022/08/26 08:31:58;;;;;;;8.88;3.58;;;24.90;99.90;;;;;;5027012;28;20104;-80
2022/08/26 08:34:26;;;;;;;6.28;3.90;;;24.80;99.90;;;;;;5023508;28;20021;-79
2022/08/26 08:36:51;;;;;;;4.00;2.95;;;24.80;99.90;;;;;;5024921;28;20096;-83
2022/08/26 08:39:17;;;;;;;5.80;3.38;;;24.70;99.90;;;;;;5022541;28;20021;-80
2022/08/26 08:42:02;;;;;;;3.53;3.15;;;24.70;99.90;;;;;;5026539;28;20029;-80
2022/08/26 08:44:29;;;;;;;5.10;3.13;;;24.80;99.90;;;;;;5025853;28;20148;-81
2022/08/26 08:47:03;;;;;;;6.10;3.25;;;24.90;99.90;;;;;;5022959;28;20057;-81
2022/08/26 08:49:29;;;;;;;5.45;2.90;;;24.90;99.90;;;;;;5024154;28;20025;-84
2022/08/26 08:52:27;;;;;;;4.88;2.70;;;25.00;99.90;;;;;;5025011;28;20500;-81
2022/08/26 08:55:08;;;;;;;6.03;3.92;;;25.30;99.90;;;;;;5024132;28;20443;-80
2022/08/26 08:57:52;;;;;;;5.00;2.97;;;25.20;99.90;;;;;;5025173;28;20033;-80
2022/08/26 09:00:21;;;;;;;8.65;3.30;;;25.40;99.90;;;;;;5024912;28;20018;-81
2022/08/26 09:03:05;;;;;;;4.55;2.90;;;25.40;99.90;;;;;;5023450;28;20486;-80
2022/08/26 09:05:40;;;;;;;6.78;2.45;;;25.30;99.90;;;;;;5023059;28;20037;-80
2022/08/26 09:08:18;;;;;;;6.10;2.85;;;24.90;99.90;;;;;;5022677;28;20103;-80
2022/08/26 09:10:52;;;;;;;5.82;3.13;;;24.90;99.90;;;;;;5024506;28;20456;-80
2022/08/26 09:13:19;;;;;;;3.70;2.90;;;25.20;99.90;;;;;;5023533;28;20047;-83
2022/08/26 09:15:54;;;;;;;3.35;2.78;;;24.90;99.90;;;;;;5024676;28;20065;-79
2022/08/26 09:18:20;;;;;;;5.07;2.65;;;25.20;99.90;;;;;;5027192;28;20034;-79
2022/08/26 09:20:55;;;;;;;3.03;2.58;;;25.20;99.90;;;;;;5027307;28;20028;-79
2022/08/26 09:23:21;;;;;;;5.85;3.30;;;25.40;99.90;;;;;;5029331;28;20388;-79
2022/08/26 09:25:57;;;;;;;6.03;3.28;;;25.50;99.90;;;;;;5029394;28;20030;-78
2022/08/26 09:28:24;;;;;;;11.93;3.80;;;25.60;99.90;;;;;;5030713;28;20108;-76
2022/08/26 09:31:11;;;;;;;10.20;3.33;;;26.50;99.90;;;;;;5029438;28;20045;-77
2022/08/26 09:33:39;;;;;;;3.22;2.53;;;27.20;99.90;;;;;;5027081;28;20272;-78
2022/08/26 09:36:31;;;;;;;5.90;3.22;;;26.80;99.90;;;;;;5026867;28;20037;-79
2022/08/26 09:38:57;;;;;;;5.40;3.08;;;26.40;99.90;;;;;;5025562;28;20519;-80
2022/08/26 09:41:30;;;;;;;5.20;2.90;;;26.00;99.90;;;;;;5026484;28;20108;-81
2022/08/26 09:44:17;;;;;;;5.22;3.28;;;26.00;99.90;;;;;;5029822;28;20021;-78
2022/08/26 09:46:51;;;;;;;6.30;2.70;;;26.50;99.90;;;;;;5027934;28;20051;-78
2022/08/26 09:49:25;;;;;;;8.20;2.63;;;26.30;99.90;;;;;;5032535;28;20079;-79
2022/08/26 09:52:12;;;;;;;7.50;3.20;;;26.20;99.90;;;;;;5029358;28;20030;-78
2022/08/26 09:54:39;;;;;;;5.25;3.25;;;26.10;99.90;;;;;;5028491;28;20047;-77
2022/08/26 09:57:23;;;;;;;2.70;2.30;;;26.00;99.90;;;;;;5027773;28;20483;-79
2022/08/26 09:59:49;;;;;;;2.97;2.50;;;26.30;99.90;;;;;;5028978;28;20030;-78
2022/08/26 10:02:23;;;;;;;3.05;2.50;;;26.30;99.90;;;;;;5028997;28;20079;-78
2022/08/26 10:04:54;;;;;;;4.57;2.72;;;26.40;99.90;;;;;;5029808;28;20412;-79
2022/08/26 10:07:49;;;;;;;3.85;2.88;;;26.40;99.90;;;;;;5024254;28;20029;-81
2022/08/26 10:10:23;;;;;;;4.50;2.72;;;26.40;99.90;;;;;;5032655;28;20060;-79
2022/08/26 10:13:20;;;;;;;9.15;2.63;;;26.30;99.90;;;;;;5024545;28;20033;-80
2022/08/26 10:16:17;;;;;;;7.88;2.60;;;26.40;99.90;;;;;;5033300;28;20021;-80
2022/08/26 10:18:55;;;;;;;4.80;2.78;;;26.90;99.90;;;;;;5023893;28;20542;-79
2022/08/26 10:21:34;;;;;;;4.75;2.85;;;27.20;99.30;;;;;;5028654;28;20106;-80
2022/08/26 10:24:02;;;;;;;3.92;2.85;;;27.00;99.00;;;;;;5021885;28;20392;-80
2022/08/26 10:26:46;;;;;;;10.35;3.00;;;27.40;98.30;;;;;;5036518;28;20523;-81
2022/08/26 10:29:24;;;;;;;4.45;2.10;;;27.00;98.50;;;;;;5021174;28;20057;-79
2022/08/26 10:31:58;;;;;;;4.55;2.42;;;27.00;98.80;;;;;;5021561;28;20037;-80
2022/08/26 10:34:23;;;;;;;11.50;3.60;;;26.80;99.50;;;;;;5018875;28;20061;-81
2022/08/26 10:36:57;;;;;;;6.28;2.90;;;26.90;99.90;;;;;;5036908;28;20516;-79
2022/08/26 10:39:35;;;;;;;4.57;2.90;;;26.80;99.90;;;;;;5025303;28;20060;-79
2022/08/26 10:42:26;;;;;;;4.10;3.08;;;26.90;99.90;;;;;;5002168;28;20034;-79
2022/08/26 10:44:56;;;;;;;4.68;2.42;;;26.40;99.90;;;;;;5013954;28;20037;-77
2022/08/26 10:47:47;;;;;;;7.20;3.22;;;26.50;99.90;;;;;;5021346;28;20068;-81
2022/08/26 10:50:13;;;;;;;3.90;2.72;;;26.80;99.20;;;;;;5023789;28;20391;-78
2022/08/26 10:53:13;;;;;;;3.10;2.35;;;26.90;98.50;;;;;;5002121;28;20056;-80
2022/08/26 10:55:58;;;;;;;4.03;2.55;;;27.30;97.40;;;;;;4948133;28;20090;-78
2022/08/26 10:58:49;;;;;;;6.97;2.90;;;27.40;96.30;;;;;;5023762;28;20033;-77
2022/08/26 11:01:41;;;;;;;5.15;3.13;;;27.10;96.50;;;;;;5018388;28;20030;-76
2022/08/26 11:04:21;;;;;;;4.10;2.40;;;27.30;96.60;;;;;;5022535;28;20087;-78
2022/08/26 11:06:47;;;;;;;4.50;3.00;;;27.50;96.60;;;;;;5022155;28;20021;-78
2022/08/26 11:09:46;;;;;;;3.92;2.60;;;27.60;95.50;;;;;;5023352;28;20044;-79
2022/08/26 11:12:46;;;;;;;8.02;3.17;;;27.10;96.40;;;;;;5022320;28;20125;-76
2022/08/26 11:15:21;;;;;;;3.33;2.30;;;27.50;96.40;;;;;;5020216;28;20049;-77
2022/08/26 11:17:46;;;;;;;6.78;3.05;;;27.10;96.60;;;;;;5020898;28;20083;-77
2022/08/26 11:20:50;;;;;;;4.95;2.97;;;26.60;97.70;;;;;;5017794;28;20029;-79
2022/08/26 11:23:21;;;;;;;3.00;2.50;;;26.60;97.90;;;;;;4955352;28;20445;-75
2022/08/26 11:26:08;;;;;;;4.72;3.38;;;26.80;99.50;;;;;;4956858;28;20249;-75
2022/08/26 11:28:43;;;;;;;6.13;3.05;;;27.20;98.00;;;;;;4991695;28;20033;-76
2022/08/26 11:31:31;;;;;;;3.72;2.63;;;26.90;98.10;;;;;;5019219;28;20088;-75
2022/08/26 11:34:01;;;;;;;3.95;2.97;;;26.70;97.70;;;;;;5017742;28;20033;-75
2022/08/26 11:36:37;;;;;;;3.60;2.42;;;26.40;98.70;;;;;;5019450;28;20033;-75
2022/08/26 11:39:35;;;;;;;2.92;2.55;;;26.90;98.20;;;;;;5014261;28;20052;-75
2022/08/26 11:42:27;;;;;;;3.28;2.20;;;26.50;98.70;;;;;;5019452;28;20029;-76
2022/08/26 11:44:55;;;;;;;3.38;2.30;;;26.10;99.70;;;;;;5018450;28;20171;-75
2022/08/26 11:47:29;;;;;;;7.47;3.45;;;25.70;99.90;;;;;;5021723;28;20120;-76
2022/08/26 11:50:14;;;;;;;8.32;3.35;;;26.30;99.90;;;;;;5022787;28;20384;-78
2022/08/26 11:52:39;;;;;;;5.10;2.33;;;26.80;99.90;;;;;;5018040;28;20571;-75
2022/08/26 11:55:10;;;;;;;10.60;2.72;;;26.90;96.50;;;;;;5019717;28;20144;-75
2022/08/26 11:57:58;;;;;;;1.73;1.40;;;26.10;96.40;;;;;;5019349;28;20030;-75
2022/08/26 12:00:47;;;;;;;1.13;0.90;;;25.50;95.30;;;;;;5022115;28;20426;-79
2022/08/26 12:03:23;;;;;;;3.60;1.75;;;25.30;94.90;;;;;;5018612;28;20029;-76
2022/08/26 12:05:51;;;;;;;3.92;1.40;;;25.10;95.70;;;;;;5020943;28;20026;-76
2022/08/26 12:08:25;;;;;;;2.83;2.03;;;24.80;95.30;;;;;;5017972;28;20416;-76
2022/08/26 12:11:05;;;;;;;3.65;1.50;;;24.50;97.00;;;;;;5020374;28;20661;-74
2022/08/26 12:13:32;;;;;;;3.53;1.55;;;24.20;97.80;;;;;;5021988;28;20496;-76
2022/08/26 12:15:59;;;;;;;1.58;1.40;;;24.00;99.90;;;;;;5017669;28;20815;-77
2022/08/26 12:18:37;;;;;;;1.65;1.30;;;23.80;99.60;;;;;;5019684;28;20044;-75
2022/08/26 12:21:20;;;;;;;3.03;1.38;;;23.70;99.90;;;;;;5019523;28;20037;-76
2022/08/26 12:23:48;;;;;;;2.20;1.05;;;23.50;99.90;;;;;;5019639;28;20026;-80
2022/08/26 12:26:22;;;;;;;2.40;1.05;;;23.10;99.90;;;;;;5018695;28;20022;-77
2022/08/26 12:28:55;;;;;;;1.33;1.15;;;22.80;99.90;;;;;;5021220;28;20128;-81
2022/08/26 12:31:34;;;;;;;1.95;1.52;;;22.20;99.90;;;;;;5019174;28;20051;-77
2022/08/26 12:34:01;;;;;;;2.10;1.40;;;21.40;99.90;;;;;;5022240;28;20026;-77
2022/08/26 12:36:35;;;;;;;1.92;1.48;;;21.50;99.90;;;;;;5021952;28;20048;-76
2022/08/26 12:39:12;;;;;;;3.55;1.70;;;21.70;99.90;;;;;;5020762;28;20476;-77
2022/08/26 12:41:40;;;;;;;3.00;1.95;;;21.40;99.90;;;;;;5019597;28;20112;-75
2022/08/26 12:44:06;;;;;;;3.17;1.90;;;21.20;99.90;;;;;;5021114;28;20112;-76
2022/08/26 12:46:32;;;;;;;1.98;1.60;;;21.10;99.90;;;;;;5018787;28;20113;-76
2022/08/26 12:49:00;;;;;;;2.28;1.67;;;21.20;99.90;;;;;;5021627;28;20030;-75
2022/08/26 12:51:29;;;;;;;2.17;1.58;;;21.20;99.90;;;;;;5018906;28;20033;-77
2022/08/26 12:53:56;;;;;;;4.93;1.88;;;21.20;99.90;;;;;;5025209;28;20135;-78
2022/08/26 12:56:30;;;;;;;4.60;1.85;;;21.30;99.90;;;;;;5023873;28;20169;-82
2022/08/26 12:59:24;;;;;;;3.13;2.33;;;21.30;99.90;;;;;;5025620;28;21196;-75
2022/08/26 13:01:51;;;;;;;3.55;1.55;;;21.30;99.90;;;;;;5020701;28;20042;-79
2022/08/26 13:04:38;;;;;;;2.80;1.60;;;21.40;99.90;;;;;;5023621;28;20033;-78
2022/08/26 13:07:13;;;;;;;2.60;1.80;;;21.40;99.90;;;;;;5022992;28;20060;-75